createdAt,value
2019-05-17T00:02:46.654Z,3.50
2019-05-17T00:07:51.319Z,3.23
2019-05-17T00:12:56.390Z,3.17
2019-05-17T00:18:00.963Z,4.00
2019-05-17T00:23:07.027Z,3.70
2019-05-17T00:28:11.882Z,3.77
2019-05-17T00:33:17.018Z,3.87
2019-05-17T00:38:21.476Z,3.67
2019-05-17T00:43:26.320Z,4.63
2019-05-17T00:48:30.967Z,5.90
2019-05-17T00:53:36.241Z,6.13
2019-05-17T00:58:40.880Z,9.73
2019-05-17T01:03:47.552Z,11.80
2019-05-17T01:09:01.100Z,11.90
2019-05-17T01:13:58.625Z,14.97
2019-05-17T01:19:03.386Z,15.33
2019-05-17T01:24:08.050Z,17.33
2019-05-17T01:29:12.569Z,18.57
2019-05-17T01:34:17.087Z,20.70
2019-05-17T01:39:21.694Z,18.77
2019-05-17T01:44:27.253Z,18.43
2019-05-17T01:49:31.884Z,20.40
2019-05-17T01:54:36.473Z,20.30
2019-05-17T01:59:40.967Z,19.10
2019-05-17T02:04:46.787Z,16.73
2019-05-17T02:09:51.251Z,16.00
2019-05-17T02:14:57.541Z,16.23
2019-05-17T02:20:01.860Z,15.20
2019-05-17T02:25:12.891Z,16.37
2019-05-17T02:30:17.666Z,15.63
2019-05-17T02:35:23.103Z,16.70
2019-05-17T02:40:27.890Z,16.27
2019-05-17T02:45:33.197Z,17.83
2019-05-17T02:50:38.122Z,19.07
2019-05-17T02:55:43.500Z,21.57
2019-05-17T03:00:48.228Z,21.13
2019-05-17T03:05:53.608Z,20.27
2019-05-17T03:10:58.254Z,21.53
2019-05-17T03:16:03.711Z,22.40
2019-05-17T03:21:08.426Z,23.70
2019-05-17T03:26:13.358Z,23.60
2019-05-17T03:31:18.605Z,25.47
2019-05-17T03:36:26.032Z,26.80
2019-05-17T03:41:29.727Z,26.57
2019-05-17T03:46:35.768Z,25.63
2019-05-17T03:51:42.656Z,26.97
2019-05-17T03:56:46.604Z,26.97
2019-05-17T04:01:52.753Z,29.47
2019-05-17T04:06:57.557Z,27.93
2019-05-17T04:12:02.877Z,28.93
2019-05-17T04:17:07.649Z,28.83
2019-05-17T04:22:13.823Z,27.47
2019-05-17T04:27:18.415Z,27.97
2019-05-17T04:32:23.496Z,27.30
2019-05-17T04:37:28.129Z,25.93
2019-05-17T04:42:33.235Z,25.40
2019-05-17T04:47:37.861Z,25.67
2019-05-17T04:52:43.045Z,26.10
2019-05-17T04:57:48.063Z,27.27
2019-05-17T05:02:52.892Z,23.97
2019-05-17T05:07:57.498Z,24.73
2019-05-17T05:13:03.104Z,22.17
2019-05-17T05:18:08.110Z,21.17
2019-05-17T05:23:13.132Z,22.13
2019-05-17T05:28:18.316Z,21.00
2019-05-17T05:33:22.765Z,19.13
2019-05-17T05:38:27.189Z,19.67
2019-05-17T05:43:32.638Z,19.53
2019-05-17T05:48:37.506Z,19.50
2019-05-17T05:53:42.096Z,19.17
2019-05-17T05:58:46.703Z,19.10
2019-05-17T06:03:52.038Z,18.93
2019-05-17T06:08:56.619Z,19.17
2019-05-17T06:14:01.744Z,19.70
2019-05-17T06:19:06.549Z,18.97
2019-05-17T06:24:12.194Z,17.10
2019-05-17T06:29:16.618Z,17.17
2019-05-17T06:34:22.310Z,16.53
2019-05-17T06:39:26.799Z,16.67
2019-05-17T06:44:32.519Z,14.67
2019-05-17T06:49:37.283Z,13.27
2019-05-17T06:54:41.918Z,14.07
2019-05-17T06:59:46.476Z,13.70
2019-05-17T07:04:52.452Z,14.07
2019-05-17T07:10:01.099Z,14.40
2019-05-17T07:15:07.739Z,13.03
2019-05-17T07:20:12.252Z,12.90
2019-05-17T07:25:16.816Z,11.87
2019-05-17T07:30:21.677Z,11.73
2019-05-17T07:35:26.245Z,11.63
2019-05-17T07:40:30.748Z,11.40
2019-05-17T07:45:35.241Z,11.37
2019-05-17T07:50:40.105Z,11.40
2019-05-17T07:55:44.627Z,10.97
2019-05-17T08:00:51.171Z,11.77
2019-05-17T08:05:55.377Z,10.27
2019-05-17T08:11:00.533Z,11.57
2019-05-17T08:16:05.281Z,11.93
2019-05-17T08:21:10.365Z,11.23
2019-05-17T08:26:15.104Z,12.70
2019-05-17T08:31:20.362Z,12.10
2019-05-17T08:36:24.743Z,12.10
2019-05-17T08:41:30.958Z,11.90
2019-05-17T08:46:35.580Z,11.87
2019-05-17T08:51:40.262Z,12.13
2019-05-17T08:56:44.768Z,10.70
2019-05-17T09:01:50.597Z,11.10
2019-05-17T09:06:55.424Z,10.73
2019-05-17T09:11:59.847Z,10.53
2019-05-17T09:17:04.452Z,10.93
2019-05-17T09:22:10.432Z,10.37
2019-05-17T09:27:15.233Z,10.70
2019-05-17T09:32:20.280Z,10.10
2019-05-17T09:37:24.962Z,10.40
2019-05-17T09:42:30.072Z,10.93
2019-05-17T09:47:34.792Z,10.70
2019-05-17T09:52:40.543Z,11.57
2019-05-17T09:57:45.333Z,12.33
2019-05-17T10:02:50.830Z,11.60
2019-05-17T10:07:55.475Z,11.73
2019-05-17T10:13:00.317Z,11.73
2019-05-17T10:18:05.039Z,11.23
2019-05-17T10:23:10.506Z,10.60
2019-05-17T10:28:15.409Z,10.23
2019-05-17T10:33:20.161Z,10.00
2019-05-17T10:38:24.702Z,9.97
2019-05-17T10:43:29.983Z,9.60
2019-05-17T10:48:34.608Z,9.47
2019-05-17T10:53:40.263Z,9.77
2019-05-17T10:58:44.954Z,9.93
2019-05-17T11:03:50.299Z,9.73
2019-05-17T11:08:55.017Z,9.77
2019-05-17T11:13:59.593Z,9.40
2019-05-17T11:19:04.097Z,9.57
2019-05-17T11:24:08.532Z,7.90
2019-05-17T11:29:13.039Z,8.70
2019-05-17T11:34:17.608Z,12.73
2019-05-17T11:39:22.394Z,11.77
2019-05-17T11:44:26.830Z,12.80
2019-05-17T11:49:31.268Z,13.47
2019-05-17T11:54:35.786Z,13.00
2019-05-17T11:59:40.424Z,12.93
2019-05-17T12:04:44.895Z,13.27
2019-05-17T12:09:49.629Z,14.47
2019-05-17T12:14:54.163Z,15.90
2019-05-17T12:19:58.601Z,17.03
2019-05-17T12:25:04.102Z,18.00
2019-05-17T12:30:10.038Z,17.97
2019-05-17T12:35:14.798Z,16.63
2019-05-17T12:40:19.646Z,19.13
2019-05-17T12:45:24.294Z,21.70
2019-05-17T12:50:28.941Z,21.90
2019-05-17T12:55:33.378Z,21.17
2019-05-17T13:00:37.882Z,22.80
2019-05-17T13:05:42.330Z,21.43
2019-05-17T13:10:46.889Z,22.17
2019-05-17T13:15:51.325Z,20.93
2019-05-17T13:20:55.831Z,21.53
2019-05-17T13:26:00.473Z,20.80
2019-05-17T13:31:05.035Z,17.80
2019-05-17T13:36:09.651Z,17.77
2019-05-17T13:41:14.171Z,18.00
2019-05-17T13:46:32.140Z,17.37
2019-05-17T13:51:25.112Z,16.13
2019-05-17T13:56:29.621Z,15.60
2019-05-17T14:03:17.300Z,16.50
2019-05-17T14:12:58.621Z,15.20
2019-05-17T14:18:03.140Z,15.47
2019-05-17T14:23:07.712Z,15.53
2019-05-17T14:28:12.486Z,15.20
2019-05-17T14:33:17.004Z,13.73
2019-05-17T14:38:23.114Z,14.33
2019-05-17T14:43:31.275Z,14.07
2019-05-17T14:48:33.700Z,13.37
2019-05-17T14:53:38.240Z,13.03
2019-05-17T14:58:42.762Z,12.40
2019-05-17T15:03:47.282Z,12.70
2019-05-17T15:08:51.839Z,12.03
2019-05-17T15:13:56.275Z,11.77
2019-05-17T15:19:00.715Z,11.27
2019-05-17T15:24:05.495Z,11.90
2019-05-17T15:29:09.999Z,12.70
2019-05-17T15:34:14.530Z,13.20
2019-05-17T15:39:19.119Z,13.13
2019-05-17T15:44:26.864Z,14.23
2019-05-17T15:49:30.119Z,14.73
2019-05-17T15:54:34.631Z,13.63
2019-05-17T15:59:39.132Z,14.30
2019-05-17T16:04:43.647Z,12.73
2019-05-17T16:09:48.087Z,13.83
2019-05-17T16:14:52.579Z,12.47
2019-05-17T16:19:57.041Z,12.40
2019-05-17T16:25:01.635Z,13.37
2019-05-17T16:30:09.747Z,13.07
2019-05-17T16:35:14.537Z,12.37
2019-05-17T16:40:19.096Z,12.93
2019-05-17T16:45:23.721Z,12.73
2019-05-17T16:50:28.342Z,12.83
2019-05-17T16:55:32.851Z,13.43
2019-05-17T17:05:49.067Z,13.80
2019-05-17T17:10:53.652Z,14.13
2019-05-17T17:15:58.136Z,13.87
2019-05-17T17:21:03.057Z,14.20
2019-05-17T17:26:08.313Z,12.63
2019-05-17T17:36:24.464Z,13.60
2019-05-17T17:41:29.102Z,12.97
2019-05-17T17:46:33.675Z,13.50
2019-05-17T17:56:47.084Z,13.67
2019-05-17T18:01:56.837Z,13.70
2019-05-17T18:07:03.616Z,13.90
2019-05-17T18:12:08.275Z,13.87
2019-05-17T18:17:12.914Z,15.30
2019-05-17T18:22:17.524Z,15.93
2019-05-17T18:27:27.440Z,15.53
2019-05-17T18:32:33.538Z,15.37
2019-05-17T18:37:40.800Z,15.23
2019-05-17T18:42:45.320Z,14.13
2019-05-17T18:47:50.576Z,14.93
2019-05-17T18:52:58.906Z,16.00
2019-05-17T18:58:03.291Z,16.07
2019-05-17T19:03:07.950Z,15.87
2019-05-17T19:08:26.446Z,16.03
2019-05-17T19:13:32.678Z,16.33
2019-05-17T19:18:37.174Z,15.80
2019-05-17T19:23:41.761Z,17.93
2019-05-17T19:28:46.343Z,18.23
2019-05-17T19:33:50.938Z,19.83
2019-05-17T19:38:55.371Z,19.50
2019-05-17T19:43:59.989Z,19.80
2019-05-17T19:49:04.677Z,19.70
2019-05-17T19:54:09.188Z,19.47
2019-05-17T19:59:13.811Z,20.90
2019-05-17T20:04:18.427Z,20.80
2019-05-17T20:09:23.021Z,21.37
2019-05-17T20:14:27.586Z,22.30
2019-05-17T20:19:32.116Z,24.07
2019-05-17T20:24:36.593Z,24.80
2019-05-17T20:29:41.198Z,25.87
2019-05-17T20:34:45.660Z,25.53
2019-05-17T20:39:50.096Z,25.13
2019-05-17T20:44:54.517Z,25.20
2019-05-17T20:49:59.499Z,27.73
2019-05-17T20:55:04.700Z,27.37
2019-05-17T21:00:11.264Z,27.37
2019-05-17T21:05:18.037Z,27.00
2019-05-17T21:10:22.613Z,24.17
2019-05-17T21:15:27.204Z,23.10
2019-05-17T21:20:31.792Z,21.30
2019-05-17T21:25:36.278Z,21.50
2019-05-17T21:30:40.885Z,21.30
2019-05-17T21:35:45.467Z,20.83
2019-05-17T21:40:49.984Z,20.10
2019-05-17T21:46:03.788Z,20.30
2019-05-17T21:51:02.455Z,21.07
2019-05-17T21:56:07.044Z,21.73
2019-05-17T22:01:15.905Z,22.83
2019-05-17T22:06:20.653Z,25.37
2019-05-17T22:11:25.251Z,26.03
2019-05-17T22:16:29.766Z,26.37
2019-05-17T22:21:34.290Z,27.53
2019-05-17T22:26:38.869Z,27.80
2019-05-17T22:31:43.319Z,29.00
2019-05-17T22:36:47.765Z,29.23
2019-05-17T22:41:52.212Z,28.77
2019-05-17T22:46:56.631Z,27.77
2019-05-17T22:52:01.152Z,26.67
2019-05-17T22:57:05.695Z,25.87
2019-05-17T23:02:10.201Z,26.97
2019-05-17T23:07:14.855Z,26.23
2019-05-17T23:12:19.289Z,25.60
2019-05-17T23:17:23.878Z,26.57
2019-05-17T23:22:28.403Z,25.23
2019-05-17T23:27:32.865Z,25.10
2019-05-17T23:32:37.356Z,25.70
2019-05-17T23:37:41.897Z,24.23
2019-05-17T23:42:46.332Z,24.17
2019-05-17T23:47:50.770Z,23.27
2019-05-17T23:52:55.388Z,23.50
2019-05-17T23:57:59.882Z,22.43
